createdAt,value
2018-10-09T00:02:47.141Z,68.4
2018-10-09T00:07:49.569Z,68.5
2018-10-09T00:12:52.301Z,68.9
2018-10-09T00:17:54.437Z,69.3
2018-10-09T00:22:56.889Z,69.5
2018-10-09T00:27:59.361Z,70.4
2018-10-09T00:33:01.783Z,70.5
2018-10-09T00:38:04.246Z,70.4
2018-10-09T00:43:06.640Z,70.3
2018-10-09T00:48:09.087Z,70.4
2018-10-09T00:53:11.546Z,70.5
2018-10-09T00:58:13.973Z,70.5
2018-10-09T01:03:16.407Z,70.7
2018-10-09T01:08:18.896Z,70.4
2018-10-09T01:13:21.284Z,70.2
2018-10-09T01:18:23.740Z,70.2
2018-10-09T01:23:26.165Z,70.2
2018-10-09T01:28:28.601Z,70
2018-10-09T01:33:31.046Z,69.9
2018-10-09T01:38:33.488Z,70
2018-10-09T01:43:35.925Z,70.5
2018-10-09T01:48:38.366Z,70.9
2018-10-09T01:53:40.811Z,71
2018-10-09T01:58:43.250Z,70.8
2018-10-09T02:03:45.689Z,71
2018-10-09T02:08:48.147Z,71.6
2018-10-09T02:13:50.576Z,72.4
2018-10-09T02:18:53.018Z,72.6
2018-10-09T02:23:55.481Z,72.3
2018-10-09T02:28:57.877Z,72.3
2018-10-09T02:34:00.414Z,72.1
2018-10-09T02:39:02.769Z,71.8
2018-10-09T02:44:05.201Z,72
2018-10-09T02:49:07.645Z,73
2018-10-09T02:54:10.095Z,72.9
2018-10-09T02:59:12.524Z,72.6
2018-10-09T03:04:14.978Z,72.2
2018-10-09T03:09:17.431Z,72.8
2018-10-09T03:14:19.848Z,72.8
2018-10-09T03:19:22.286Z,72.6
2018-10-09T03:24:24.748Z,72.4
2018-10-09T03:29:27.172Z,72.2
2018-10-09T03:34:29.677Z,72.4
2018-10-09T03:39:32.070Z,72.6
2018-10-09T03:44:34.526Z,72.5
2018-10-09T03:49:36.963Z,72.4
2018-10-09T03:54:39.396Z,72.2
2018-10-09T03:59:41.844Z,72.6
2018-10-09T04:04:44.342Z,73.1
2018-10-09T04:09:51.819Z,72.6
2018-10-09T04:14:49.181Z,72.8
2018-10-09T04:19:56.674Z,72.4
2018-10-09T04:24:54.074Z,72.3
2018-10-09T04:29:56.535Z,72.3
2018-10-09T04:34:58.955Z,72.5
2018-10-09T04:40:01.498Z,72.7
2018-10-09T04:45:03.801Z,73.2
2018-10-09T04:50:06.251Z,73.1
2018-10-09T04:55:08.688Z,73
2018-10-09T05:00:11.133Z,73.1
2018-10-09T05:05:13.587Z,73.3
2018-10-09T05:10:16.025Z,73.4
2018-10-09T05:15:18.454Z,73.3
2018-10-09T05:20:20.877Z,73.1
2018-10-09T05:25:23.337Z,73.1
2018-10-09T05:30:25.762Z,73.1
2018-10-09T05:35:28.220Z,73.1
2018-10-09T05:40:30.665Z,73.1
2018-10-09T05:45:33.094Z,73.6
2018-10-09T05:50:35.521Z,73.9
2018-10-09T05:55:37.983Z,74
2018-10-09T06:00:40.400Z,74.2
2018-10-09T06:05:42.847Z,74.3
2018-10-09T06:10:45.285Z,74.9
2018-10-09T06:15:47.758Z,75
2018-10-09T06:20:50.164Z,75.7
2018-10-09T06:25:52.595Z,76.2
2018-10-09T06:30:55.040Z,76.4
2018-10-09T06:35:57.504Z,76.5
2018-10-09T06:40:59.941Z,76.8
2018-10-09T06:46:02.372Z,77.1
2018-10-09T06:51:04.807Z,77.5
2018-10-09T06:56:07.261Z,78.4
2018-10-09T07:01:09.716Z,79.1
2018-10-09T07:06:12.196Z,79.8
2018-10-09T07:11:14.720Z,80.5
2018-10-09T07:16:17.091Z,82
2018-10-09T07:21:19.451Z,82.4
2018-10-09T07:26:21.917Z,83
2018-10-09T07:31:24.328Z,83.6
2018-10-09T07:36:26.772Z,83
2018-10-09T07:41:29.285Z,83.7
2018-10-09T07:46:31.658Z,84.4
2018-10-09T07:51:34.112Z,85.2
2018-10-09T07:56:36.594Z,85.4
2018-10-09T08:01:38.974Z,85.8
2018-10-09T08:06:41.407Z,86.1
2018-10-09T08:11:43.853Z,86.3
2018-10-09T08:16:46.318Z,86.6
2018-10-09T08:21:48.730Z,86.8
2018-10-09T08:26:51.210Z,87.2
2018-10-09T08:31:53.703Z,87.6
2018-10-09T08:36:56.062Z,88.2
2018-10-09T08:41:58.493Z,88.8
2018-10-09T08:47:00.946Z,88.8
2018-10-09T08:52:03.459Z,89
2018-10-09T08:57:05.842Z,88.7
2018-10-09T09:02:08.263Z,88.4
2018-10-09T09:07:10.715Z,88.1
2018-10-09T09:12:13.169Z,87.8
2018-10-09T09:17:15.601Z,87.6
2018-10-09T09:22:18.020Z,87.6
2018-10-09T09:27:20.536Z,87.3
2018-10-09T09:32:22.988Z,86.8
2018-10-09T09:37:25.355Z,85.6
2018-10-09T09:42:27.804Z,84.3
2018-10-09T09:47:30.249Z,83.7
2018-10-09T09:52:32.657Z,82.8
2018-10-09T09:57:35.139Z,81.4
2018-10-09T10:02:37.535Z,80.3
2018-10-09T10:07:40.002Z,79.8
2018-10-09T10:12:42.438Z,79.1
2018-10-09T10:17:44.887Z,77.3
2018-10-09T10:22:47.307Z,75.1
2018-10-09T10:27:49.761Z,74.4
2018-10-09T10:32:52.202Z,73.2
2018-10-09T10:37:54.638Z,72.7
2018-10-09T10:42:57.093Z,72.1
2018-10-09T10:47:59.583Z,71.6
2018-10-09T10:53:02.022Z,71.2
2018-10-09T10:58:04.418Z,71
2018-10-09T11:03:06.855Z,70.7
2018-10-09T11:08:09.305Z,69.7
2018-10-09T11:13:11.708Z,69.5
2018-10-09T11:18:14.173Z,68.4
2018-10-09T11:23:16.607Z,67.7
2018-10-09T11:28:19.046Z,66.3
2018-10-09T11:33:21.478Z,64.4
2018-10-09T11:38:23.913Z,60.6
2018-10-09T11:43:26.385Z,58.6
2018-10-09T11:48:28.803Z,56
2018-10-09T11:53:31.253Z,54.9
2018-10-09T11:58:33.746Z,52
2018-10-09T12:03:36.129Z,50.6
2018-10-09T12:08:38.571Z,51.9
2018-10-09T12:13:41.020Z,48.9
2018-10-09T12:18:43.463Z,46
2018-10-09T12:23:45.900Z,45.1
2018-10-09T12:28:48.335Z,45.3
2018-10-09T12:33:50.784Z,43.4
2018-10-09T12:38:53.234Z,42.2
2018-10-09T12:43:55.731Z,40.7
2018-10-09T12:48:58.190Z,39.4
2018-10-09T12:54:00.586Z,38.6
2018-10-09T12:59:03.063Z,38.7
2018-10-09T13:04:05.440Z,37.3
2018-10-09T13:09:07.898Z,36.6
2018-10-09T13:14:10.384Z,35.7
2018-10-09T13:19:12.894Z,34.8
2018-10-09T13:24:15.207Z,34.5
2018-10-09T13:29:17.698Z,34
2018-10-09T13:34:20.169Z,33.3
2018-10-09T13:39:22.560Z,33.8
2018-10-09T13:44:25.003Z,34
2018-10-09T13:49:27.425Z,33.9
2018-10-09T13:54:29.859Z,33.4
2018-10-09T13:59:32.315Z,33.4
2018-10-09T14:04:34.769Z,32.7
2018-10-09T14:09:37.228Z,33
2018-10-09T14:14:39.659Z,32.9
2018-10-09T14:19:42.089Z,32.2
2018-10-09T14:24:44.527Z,31.8
2018-10-09T14:29:46.998Z,31.2
2018-10-09T14:34:49.431Z,31.2
2018-10-09T14:39:51.974Z,31.7
2018-10-09T14:44:54.294Z,33.1
2018-10-09T14:49:56.769Z,34.9
2018-10-09T14:54:59.226Z,36.2
2018-10-09T15:00:06.655Z,37.3
2018-10-09T15:05:04.052Z,38.3
2018-10-09T15:10:06.508Z,39.2
2018-10-09T15:15:08.992Z,40.3
2018-10-09T15:20:11.391Z,41.2
2018-10-09T15:25:13.827Z,41.8
2018-10-09T15:30:16.280Z,42.1
2018-10-09T15:35:18.754Z,42.1
2018-10-09T15:40:21.186Z,42.3
2018-10-09T15:45:23.648Z,42.8
2018-10-09T15:50:26.052Z,43.3
2018-10-09T15:55:28.478Z,43.9
2018-10-09T16:00:30.928Z,44.7
2018-10-09T16:05:33.381Z,45.1
2018-10-09T16:10:35.965Z,45.5
2018-10-09T16:15:38.251Z,45.9
2018-10-09T16:20:40.818Z,46.6
2018-10-09T16:25:43.128Z,47.2
2018-10-09T16:30:45.593Z,47.7
2018-10-09T16:35:47.992Z,48.1
2018-10-09T16:40:50.438Z,48.6
2018-10-09T16:45:52.886Z,49.1
2018-10-09T16:50:55.341Z,49.5
2018-10-09T17:06:02.660Z,50.6
2018-10-09T17:11:05.072Z,50.9
2018-10-09T17:16:07.548Z,51.2
2018-10-09T17:21:09.979Z,51.5
2018-10-09T17:26:12.398Z,51.7
2018-10-09T17:36:17.300Z,52.4
2018-10-09T17:41:19.757Z,53.1
2018-10-09T17:51:24.614Z,53.6
2018-10-09T17:56:27.041Z,54.2
2018-10-09T18:01:29.547Z,54.6
2018-10-09T18:06:31.985Z,55.1
2018-10-09T18:11:34.361Z,55.5
2018-10-09T18:16:36.815Z,55.2
2018-10-09T18:21:39.241Z,55.5
2018-10-09T18:26:41.702Z,56.2
2018-10-09T18:36:46.563Z,57.1
2018-10-09T18:41:49.151Z,57.4
2018-10-09T18:46:51.523Z,58
2018-10-09T18:51:53.896Z,58
2018-10-09T18:56:56.327Z,58.1
2018-10-09T19:01:58.764Z,58.4
2018-10-09T19:07:01.213Z,58.7
2018-10-09T19:12:03.659Z,58.8
2018-10-09T19:17:06.082Z,58.6
2018-10-09T19:22:08.534Z,58.3
2018-10-09T19:32:13.453Z,58
2018-10-09T19:37:15.858Z,58.1
2018-10-09T19:42:18.331Z,57.9
2018-10-09T19:47:20.727Z,58.2
2018-10-09T19:52:23.166Z,58.2
2018-10-09T19:57:25.609Z,57.9
2018-10-09T20:02:28.060Z,57.8
2018-10-09T20:07:30.508Z,57.5
2018-10-09T20:12:32.926Z,57.5
2018-10-09T20:17:35.387Z,57.6
2018-10-09T20:22:37.819Z,57.9
2018-10-09T20:27:40.253Z,57.9
2018-10-09T20:32:42.708Z,58
2018-10-09T20:37:45.144Z,58.3
2018-10-09T20:42:47.856Z,58.9
2018-10-09T20:47:50.025Z,59.7
2018-10-09T20:52:52.457Z,59.5
2018-10-09T20:57:54.897Z,59.8
2018-10-09T21:02:57.344Z,61.6
2018-10-09T21:07:59.776Z,62.5
2018-10-09T21:13:02.250Z,63.2
2018-10-09T21:18:04.758Z,64
2018-10-09T21:23:07.122Z,64.3
2018-10-09T21:28:09.820Z,64.3
2018-10-09T21:33:12.025Z,63.7
2018-10-09T21:38:14.469Z,62.6
2018-10-09T21:43:16.866Z,62.7
2018-10-09T21:48:19.311Z,62.4
2018-10-09T21:53:21.740Z,63.3
2018-10-09T21:58:24.217Z,63.9
2018-10-09T22:03:26.634Z,64.3
2018-10-09T22:08:29.340Z,64.1
2018-10-09T22:13:31.505Z,63.6
2018-10-09T22:18:33.949Z,62.9
2018-10-09T22:23:36.393Z,63.5
2018-10-09T22:28:38.819Z,63.8
2018-10-09T22:33:41.269Z,63
2018-10-09T22:38:43.703Z,62.6
2018-10-09T22:43:46.169Z,62.5
2018-10-09T22:48:48.579Z,63.1
2018-10-09T22:53:51.018Z,65.1
2018-10-09T22:58:53.459Z,65.9
2018-10-09T23:03:55.898Z,66.3
2018-10-09T23:08:58.341Z,65.7
2018-10-09T23:14:00.791Z,64.6
2018-10-09T23:19:03.334Z,64.2
2018-10-09T23:24:05.668Z,64
2018-10-09T23:29:08.103Z,64
2018-10-09T23:34:10.534Z,63.9
2018-10-09T23:39:12.984Z,63.6
2018-10-09T23:44:15.442Z,63.8
2018-10-09T23:49:17.865Z,63.8
2018-10-09T23:54:20.305Z,64.1
2018-10-09T23:59:22.743Z,63.9
